Etusivu
METAR-TAF:

METAR-TAF

Lentoasemat :

Wajima, Japani

Leveyspiiri: 37-17-36N, Pituuspiiri: 136-57-44E, korkeus merenpinnasta: 219 m

Tämänhetkinen sää

Tämä raportti tehtiin 4 tuntia ja 24 minuuttia sitten, kello 10.00 UTC
Tuuli 5 kn koillisesta, vaihdellen pohjoisen ja idän/koillisen välillä
Lämpötila 10°C
Kosteus 100%
Ilmanpaine 1007 hPa
Näkyvyys: 4000 m
Muutamia pilviä alle 100 ft:n korkeudessa
Hajonneita pilviä 400 ft:n korkeudessa
Hajonneita pilviä 500 ft:n korkeudessa
utua

METAR: RJNW 251000Z 04005KT 350V070 4000 BR FEW000 BKN004 BKN005 10/10 Q1007

Aika: 23:24 (14:24 UTC)


TAF: puuttuu

Säähavainnot ja -ennusteet yli 4000 lentoasemalta (METAR- ja TAF-raportit).

Käytössä olevat sääasemat on merkitty karttaan keltaisilla ja punaisilla pisteillä.

Aseta hiiri pisteen päälle nähdäksesi sääaseman nimen.

Klikkaa sitten nähdäksesi säähavainnot ja -ennusteet.

Kartan vaihtaminen: klikkaa mustalla rastilla varustettuja vihreitä pisteitä, niin voit zoomata sisään; viivalla varustettua vihreää pistettä, niin voit zoomata ulos tai vihreitä nuolia, niin pääset viereisille kartoille.


METAR-TAF: